Date,TemperatureHighF,TemperatureAvgF,TemperatureLowF,DewpointHighF,DewpointAvgF,DewpointLowF,HumidityHigh,HumidityAvg,HumidityLow,PressureMaxIn,PressureMinIn,WindSpeedMaxMPH,WindSpeedAvgMPH,GustSpeedMaxMPH,PrecipitationSumIn
2013-5-1,87.3,72.1,55.4,49.7,40.5,32.0,62,34,15,30.03,29.76,12,2,12,0.00
2013-5-2,91.8,74.8,57.0,52.1,44.8,29.5,70,40,13,30.14,30.00,13,1,14,0.00
2013-5-3,93.2,76.5,60.0,52.7,47.3,37.9,59,38,15,30.01,29.72,12,2,12,0.00
2013-5-4,93.0,76.0,58.6,51.3,45.4,34.7,71,38,17,29.73,29.48,14,2,14,0.00
2013-5-5,80.5,67.6,57.4,50.6,46.5,34.6,67,48,29,29.81,29.59,18,3,19,0.00
2013-5-6,76.8,67.7,60.4,51.2,48.4,45.2,71,51,34,29.93,29.79,16,3,17,0.00
2013-5-7,68.3,61.1,55.0,56.5,53.2,46.4,94,76,54,30.01,29.93,15,3,15,0.36
2013-5-8,76.6,65.1,55.9,57.7,54.6,52.1,90,70,47,30.08,29.98,12,2,13,0.00
2013-5-9,81.2,69.0,56.0,59.4,54.6,50.6,85,63,38,30.07,29.99,13,2,13,0.00
2013-5-10,88.0,74.0,60.0,62.1,58.5,54.7,84,61,36,30.11,29.99,9,1,10,0.00
2013-5-11,94.9,80.2,64.8,64.8,61.7,58.3,85,56,34,30.07,29.92,10,2,11,0.00
2013-5-12,97.6,81.8,65.0,65.1,61.9,56.4,88,54,28,30.06,29.86,12,2,12,0.00
2013-5-13,97.5,81.1,63.1,63.3,57.7,53.5,82,48,24,30.00,29.80,10,2,10,0.00
2013-5-14,91.0,77.8,65.7,58.8,53.6,37.8,68,46,16,29.89,29.80,14,3,15,0.00
2013-5-15,90.4,75.1,61.6,57.9,51.1,43.5,71,46,22,29.96,29.83,14,3,14,0.00
2013-5-16,75.4,67.0,57.4,53.6,50.7,48.4,75,57,44,29.97,29.87,17,4,19,0.00
2013-5-17,80.7,67.6,53.6,53.2,46.5,39.9,78,50,28,29.97,29.89,14,4,14,0.00
2013-5-18,82.2,67.4,51.1,47.8,43.2,33.0,72,45,18,30.08,29.96,13,3,13,0.00
2013-5-19,85.2,71.2,56.0,53.1,48.8,44.6,74,48,25,30.03,29.87,11,2,11,0.00
2013-5-20,92.7,76.0,56.9,53.6,47.4,42.1,73,40,21,29.97,29.83,9,2,10,0.00
2013-5-21,91.5,75.3,61.0,55.2,46.8,29.5,70,41,11,29.87,29.73,17,4,20,0.00
2013-5-22,73.7,62.2,52.1,42.7,37.1,23.9,69,43,17,29.92,29.79,16,4,17,0.00
2013-5-23,76.0,61.9,48.1,42.2,37.6,31.4,65,43,20,29.92,29.84,14,3,14,0.00
2013-5-24,82.0,66.5,49.1,47.8,43.2,38.6,79,46,24,29.96,29.83,12,2,12,0.00
2013-5-25,83.0,68.2,52.3,47.2,42.3,34.1,70,43,18,29.95,29.86,13,2,13,0.00
2013-5-26,81.6,67.9,54.2,51.9,48.5,44.2,73,52,32,30.03,29.93,15,4,16,0.00
2013-5-27,78.5,66.7,53.6,54.5,49.8,45.6,80,57,34,30.04,29.91,17,4,17,0.00
2013-5-28,81.8,68.6,57.8,59.2,54.6,51.1,85,63,35,29.95,29.79,17,4,17,0.00
2013-5-29,84.8,71.4,58.3,59.9,53.6,43.8,82,56,33,29.89,29.74,18,4,20,0.00
2013-5-30,87.8,72.6,57.9,56.2,50.0,41.3,70,47,24,29.90,29.80,12,3,14,0.00
2013-5-31,91.1,74.3,57.4,55.1,50.4,45.9,73,46,25,29.94,29.82,11,2,12,0.00